createdAt,value
2016-09-17T00:00:33.029Z,17.13
2016-09-17T00:01:44.032Z,17.09
2016-09-17T00:02:55.039Z,17.07
2016-09-17T00:04:06.040Z,17.17
2016-09-17T00:05:17.042Z,17.17
2016-09-17T00:06:28.044Z,17.09
2016-09-17T00:07:39.063Z,17.12
2016-09-17T00:08:50.471Z,17.09
2016-09-17T00:10:01.477Z,17.09
2016-09-17T00:11:12.675Z,17.07
2016-09-17T00:12:23.687Z,17.12
2016-09-17T00:13:34.691Z,17.1
2016-09-17T00:14:45.696Z,17.07
2016-09-17T00:15:56.696Z,17.09
2016-09-17T00:17:07.907Z,17.09
2016-09-17T00:18:18.907Z,17.17
2016-09-17T00:19:30.110Z,17.1
2016-09-17T00:20:41.121Z,17.07
2016-09-17T00:21:52.150Z,17.09
2016-09-17T00:23:03.148Z,17.12
2016-09-17T00:24:14.356Z,17.13
2016-09-17T00:25:25.353Z,17.12
2016-09-17T00:26:36.360Z,17.13
2016-09-17T00:27:47.367Z,17.1
2016-09-17T00:28:58.366Z,17.18
2016-09-17T00:30:09.373Z,17.18
2016-09-17T00:31:20.375Z,17.22
2016-09-17T00:32:31.397Z,17.15
2016-09-17T00:33:42.601Z,17.18
2016-09-17T00:34:53.596Z,17.13
2016-09-17T00:36:04.796Z,17.12
2016-09-17T00:37:15.800Z,17.15
2016-09-17T00:38:26.799Z,17.1
2016-09-17T00:39:37.803Z,16.97
2016-09-17T00:40:48.822Z,16.99
2016-09-17T00:41:59.823Z,17.03
2016-09-17T00:43:10.838Z,16.95
2016-09-17T00:44:21.848Z,16.97
2016-09-17T00:45:33.052Z,16.99
2016-09-17T00:46:44.055Z,16.97
2016-09-17T00:47:55.055Z,16.97
2016-09-17T00:49:06.065Z,16.97
2016-09-17T00:50:17.077Z,16.97
2016-09-17T00:51:28.077Z,16.99
2016-09-17T00:52:39.081Z,17.03
2016-09-17T00:53:50.076Z,17.03
2016-09-17T00:55:01.282Z,17
2016-09-17T00:56:12.275Z,16.99
2016-09-17T00:57:23.286Z,16.95
2016-09-17T00:58:34.296Z,16.97
2016-09-17T00:59:45.317Z,16.97
2016-09-17T01:00:56.324Z,17.03
2016-09-17T01:02:07.337Z,16.92
2016-09-17T01:03:18.351Z,16.87
2016-09-17T01:04:29.349Z,16.92
2016-09-17T01:05:40.360Z,17
2016-09-17T01:06:51.359Z,16.9
2016-09-17T01:08:02.557Z,16.99
2016-09-17T01:09:13.565Z,16.87
2016-09-17T01:10:24.564Z,16.94
2016-09-17T01:11:35.577Z,16.9
2016-09-17T01:12:46.586Z,16.87
2016-09-17T01:13:57.595Z,16.87
2016-09-17T01:15:08.594Z,16.95
2016-09-17T01:16:19.594Z,16.9
2016-09-17T01:17:30.599Z,16.88
2016-09-17T01:18:41.598Z,16.94
2016-09-17T01:19:52.801Z,16.91
2016-09-17T01:21:04.012Z,16.82
2016-09-17T01:22:15.425Z,16.85
2016-09-17T01:23:26.432Z,16.8
2016-09-17T01:24:37.449Z,16.72
2016-09-17T01:25:48.460Z,16.72
2016-09-17T01:26:59.471Z,16.67
2016-09-17T01:28:10.474Z,16.7
2016-09-17T01:29:21.483Z,16.67
2016-09-17T01:30:32.482Z,16.72
2016-09-17T01:31:43.485Z,16.67
2016-09-17T01:32:54.489Z,16.7
2016-09-17T01:34:05.479Z,16.76
2016-09-17T01:35:16.485Z,16.57
2016-09-17T01:36:27.493Z,16.62
2016-09-17T01:37:38.500Z,16.58
2016-09-17T01:38:49.500Z,16.73
2016-09-17T01:40:00.500Z,16.66
2016-09-17T01:41:11.502Z,16.7
2016-09-17T01:42:22.506Z,16.69
2016-09-17T01:43:33.507Z,16.7
2016-09-17T01:44:44.502Z,16.62
2016-09-17T01:45:55.505Z,16.63
2016-09-17T01:47:06.505Z,16.67
2016-09-17T01:48:17.505Z,16.69
2016-09-17T01:49:28.504Z,16.51
2016-09-17T01:50:39.514Z,16.54
2016-09-17T01:51:50.517Z,16.55
2016-09-17T01:53:01.927Z,16.39
2016-09-17T01:54:13.136Z,16.4
2016-09-17T01:55:24.148Z,16.44
2016-09-17T01:56:35.143Z,16.49
2016-09-17T01:57:46.155Z,16.36
2016-09-17T01:58:57.163Z,16.36
2016-09-17T02:00:08.368Z,16.44
2016-09-17T02:01:19.374Z,16.45
2016-09-17T02:02:30.389Z,16.44
2016-09-17T02:03:41.396Z,16.42
2016-09-17T02:04:52.397Z,16.33
2016-09-17T02:06:03.401Z,16.37
2016-09-17T02:07:14.617Z,16.37
2016-09-17T02:08:25.631Z,16.4
2016-09-17T02:09:36.647Z,16.4
2016-09-17T02:10:47.652Z,16.4
2016-09-17T02:11:58.652Z,16.33
2016-09-17T02:13:09.869Z,16.4
2016-09-17T02:14:20.875Z,16.39
2016-09-17T02:15:31.878Z,16.32
2016-09-17T02:16:42.884Z,16.4
2016-09-17T02:17:53.901Z,16.4
2016-09-17T02:19:04.909Z,16.32
2016-09-17T02:20:15.911Z,16.33
2016-09-17T02:21:27.117Z,16.36
2016-09-17T02:22:38.123Z,16.37
2016-09-17T02:23:49.327Z,16.34
2016-09-17T02:25:00.539Z,16.36
2016-09-17T02:26:11.541Z,16.33
2016-09-17T02:27:22.544Z,16.34
2016-09-17T02:28:33.545Z,16.32
2016-09-17T02:29:44.552Z,16.27
2016-09-17T02:30:55.564Z,16.29
2016-09-17T02:32:06.769Z,16.29
2016-09-17T02:33:17.970Z,16.17
2016-09-17T02:34:28.980Z,16.21
2016-09-17T02:35:39.988Z,16.17
2016-09-17T02:36:51.003Z,16.14
2016-09-17T02:38:02.006Z,16.13
2016-09-17T02:39:13.006Z,16.07
2016-09-17T02:40:24.009Z,16.08
2016-09-17T02:41:35.007Z,16.04
2016-09-17T02:42:46.011Z,16.1
2016-09-17T02:43:57.010Z,16.07
2016-09-17T02:45:08.021Z,16.13
2016-09-17T02:46:19.025Z,16.04
2016-09-17T02:47:30.031Z,16.02
2016-09-17T02:48:41.228Z,16.06
2016-09-17T02:49:52.220Z,16.08
2016-09-17T02:51:03.230Z,16.02
2016-09-17T02:52:14.228Z,15.95
2016-09-17T02:53:25.226Z,16.04
2016-09-17T02:54:36.230Z,15.92
2016-09-17T02:55:47.243Z,15.93
2016-09-17T02:56:58.247Z,15.93
2016-09-17T02:58:09.671Z,15.93
2016-09-17T02:59:20.671Z,15.95
2016-09-17T03:00:31.685Z,15.83
2016-09-17T03:01:42.891Z,15.84
2016-09-17T03:02:53.892Z,15.81
2016-09-17T03:04:04.906Z,15.83
2016-09-17T03:05:15.908Z,15.83
2016-09-17T03:06:26.914Z,15.88
2016-09-17T03:07:37.971Z,15.95
2016-09-17T03:08:48.972Z,15.83
2016-09-17T03:09:59.982Z,15.86
2016-09-17T03:11:10.983Z,15.89
2016-09-17T03:12:21.978Z,15.88
2016-09-17T03:13:33.181Z,15.86
2016-09-17T03:14:44.380Z,15.84
2016-09-17T03:15:55.380Z,15.84
2016-09-17T03:17:06.383Z,15.83
2016-09-17T03:18:17.395Z,15.84
2016-09-17T03:19:28.402Z,15.84
2016-09-17T03:20:39.407Z,15.8
2016-09-17T03:21:50.410Z,15.74
2016-09-17T03:23:01.415Z,15.8
2016-09-17T03:24:12.425Z,15.62
2016-09-17T03:25:23.627Z,15.59
2016-09-17T03:26:34.621Z,15.7
2016-09-17T03:27:45.826Z,15.67
2016-09-17T03:28:56.822Z,15.65
2016-09-17T03:30:07.832Z,15.65
2016-09-17T03:31:18.834Z,15.63
2016-09-17T03:32:29.838Z,15.67
2016-09-17T03:33:40.846Z,15.67
2016-09-17T03:34:51.845Z,15.63
2016-09-17T03:36:02.852Z,15.7
2016-09-17T03:37:13.863Z,15.6
2016-09-17T03:38:24.871Z,15.58
2016-09-17T03:39:35.877Z,15.62
2016-09-17T03:40:46.878Z,15.59
2016-09-17T03:41:57.896Z,15.58
2016-09-17T03:43:09.107Z,15.58
2016-09-17T03:44:20.110Z,15.71
2016-09-17T03:45:31.315Z,15.7
2016-09-17T03:46:42.325Z,15.63
2016-09-17T03:47:53.347Z,15.63
2016-09-17T03:49:04.351Z,15.59
2016-09-17T03:50:15.354Z,15.63
2016-09-17T03:51:26.555Z,15.67
2016-09-17T03:52:37.561Z,15.62
2016-09-17T03:53:48.572Z,15.67
2016-09-17T03:54:59.576Z,15.7
2016-09-17T03:56:10.575Z,15.71
2016-09-17T03:57:21.591Z,15.7
2016-09-17T03:58:32.593Z,15.59
2016-09-17T03:59:43.602Z,15.6
2016-09-17T04:00:54.603Z,15.56
2016-09-17T04:02:05.599Z,15.53
2016-09-17T04:03:16.603Z,15.55
2016-09-17T04:04:27.805Z,15.56
2016-09-17T04:05:38.807Z,15.47
2016-09-17T04:06:49.809Z,15.53
2016-09-17T04:08:00.824Z,15.53
2016-09-17T04:09:11.832Z,15.56
2016-09-17T04:10:22.837Z,15.62
2016-09-17T04:11:33.845Z,15.6
2016-09-17T04:12:44.840Z,15.53
2016-09-17T04:13:55.841Z,15.53
2016-09-17T04:15:07.045Z,15.62
2016-09-17T04:16:18.039Z,15.58
2016-09-17T04:17:29.035Z,15.65
2016-09-17T04:18:40.042Z,15.53
2016-09-17T04:19:51.056Z,15.7
2016-09-17T04:21:02.074Z,15.53
2016-09-17T04:22:13.094Z,15.59
2016-09-17T04:23:24.098Z,15.58
2016-09-17T04:24:35.097Z,15.52
2016-09-17T04:25:46.108Z,15.47
2016-09-17T04:26:57.319Z,15.56
2016-09-17T04:28:08.577Z,15.56
2016-09-17T04:29:19.576Z,15.53
2016-09-17T04:30:30.835Z,15.58
2016-09-17T04:31:41.842Z,15.58
2016-09-17T04:32:52.844Z,15.58
2016-09-17T04:34:03.843Z,15.6
2016-09-17T04:35:14.845Z,15.56
2016-09-17T04:36:25.846Z,15.6
2016-09-17T04:37:36.847Z,15.56
2016-09-17T04:38:47.848Z,15.53
2016-09-17T04:39:58.854Z,15.55
2016-09-17T04:41:10.055Z,15.6
2016-09-17T04:42:21.265Z,15.58
2016-09-17T04:43:32.265Z,15.52
2016-09-17T04:44:43.471Z,15.62
2016-09-17T04:45:54.671Z,15.56
2016-09-17T04:47:05.681Z,15.53
2016-09-17T04:48:16.687Z,15.53
2016-09-17T04:49:27.693Z,15.53
2016-09-17T04:50:38.696Z,15.58
2016-09-17T04:51:49.700Z,15.53
2016-09-17T04:53:00.696Z,15.55
2016-09-17T04:54:11.708Z,15.53
2016-09-17T04:55:22.718Z,15.51
2016-09-17T04:56:33.726Z,15.56
2016-09-17T04:57:44.731Z,15.49
2016-09-17T04:58:55.742Z,15.56
2016-09-17T05:00:06.740Z,15.59
2016-09-17T05:01:17.765Z,15.52
2016-09-17T05:02:28.768Z,15.43
2016-09-17T05:03:39.760Z,15.4
2016-09-17T05:04:50.762Z,15.44
2016-09-17T05:06:01.761Z,15.45
2016-09-17T05:07:12.765Z,15.35
2016-09-17T05:08:23.769Z,15.45
2016-09-17T05:09:34.771Z,15.45
2016-09-17T05:10:45.779Z,15.45
2016-09-17T05:11:56.784Z,15.49
2016-09-17T05:13:07.782Z,15.45
2016-09-17T05:14:18.800Z,15.47
2016-09-17T05:15:29.806Z,15.45
2016-09-17T05:16:40.801Z,15.44
2016-09-17T05:17:51.806Z,15.49
2016-09-17T05:19:02.863Z,15.41
2016-09-17T05:20:14.068Z,15.49
2016-09-17T05:21:25.070Z,15.47
2016-09-17T05:22:36.072Z,15.4
2016-09-17T05:23:47.075Z,15.49
2016-09-17T05:24:58.075Z,15.45
2016-09-17T05:26:09.086Z,15.51
2016-09-17T05:27:20.084Z,15.43
2016-09-17T05:28:31.299Z,15.52
2016-09-17T05:29:42.307Z,15.53
2016-09-17T05:30:53.517Z,15.52
2016-09-17T05:32:04.523Z,15.51
2016-09-17T05:33:15.527Z,15.43
2016-09-17T05:34:26.538Z,15.52
2016-09-17T05:35:37.542Z,15.58
2016-09-17T05:36:48.549Z,15.55
2016-09-17T05:37:59.559Z,15.53
2016-09-17T05:39:10.566Z,15.44
2016-09-17T05:40:21.770Z,15.44
2016-09-17T05:41:32.766Z,15.43
2016-09-17T05:42:43.772Z,15.43
2016-09-17T05:43:54.765Z,15.41
2016-09-17T05:45:05.771Z,15.4
2016-09-17T05:46:16.774Z,15.56
2016-09-17T05:47:27.770Z,15.49
2016-09-17T05:48:38.767Z,15.56
2016-09-17T05:49:49.769Z,15.49
2016-09-17T05:51:00.967Z,15.47
2016-09-17T05:52:11.973Z,15.58
2016-09-17T05:53:22.968Z,15.59
2016-09-17T05:54:33.984Z,15.52
2016-09-17T05:55:44.983Z,15.49
2016-09-17T05:56:55.986Z,15.6
2016-09-17T05:58:06.998Z,15.59
2016-09-17T05:59:18.003Z,15.63
2016-09-17T06:00:29.005Z,15.65
2016-09-17T06:01:40.004Z,15.67
2016-09-17T06:02:51.001Z,15.71
2016-09-17T06:04:02.001Z,15.78
2016-09-17T06:05:13.004Z,15.8
2016-09-17T06:06:24.001Z,15.8
2016-09-17T06:07:35.005Z,15.71
2016-09-17T06:08:46.014Z,15.88
2016-09-17T06:09:57.012Z,15.83
2016-09-17T06:11:08.018Z,15.86
2016-09-17T06:12:19.025Z,15.78
2016-09-17T06:13:30.023Z,15.84
2016-09-17T06:14:41.023Z,15.89
2016-09-17T06:15:52.017Z,15.83
2016-09-17T06:17:03.022Z,15.91
2016-09-17T06:18:14.230Z,15.84
2016-09-17T06:19:25.640Z,15.8
2016-09-17T06:20:36.641Z,15.96
2016-09-17T06:21:47.645Z,15.96
2016-09-17T06:22:58.653Z,16.04
2016-09-17T06:24:09.652Z,16.1
2016-09-17T06:25:20.660Z,16.13
2016-09-17T06:26:31.653Z,16.16
2016-09-17T06:27:42.849Z,16.16
2016-09-17T06:28:53.846Z,16.3
2016-09-17T06:30:04.852Z,16.33
2016-09-17T06:31:15.842Z,16.32
2016-09-17T06:32:26.844Z,16.32
2016-09-17T06:33:37.844Z,16.36
2016-09-17T06:34:48.853Z,16.42
2016-09-17T06:35:59.851Z,16.55
2016-09-17T06:37:10.851Z,16.48
2016-09-17T06:38:21.872Z,16.54
2016-09-17T06:39:32.876Z,16.55
2016-09-17T06:40:43.883Z,16.62
2016-09-17T06:41:54.889Z,16.66
2016-09-17T06:43:05.887Z,16.63
2016-09-17T06:44:16.890Z,16.7
2016-09-17T06:45:27.899Z,16.73
2016-09-17T06:46:38.906Z,16.8
2016-09-17T06:47:49.904Z,16.82
2016-09-17T06:49:00.915Z,16.84
2016-09-17T06:50:11.924Z,16.88
2016-09-17T06:51:22.951Z,16.94
2016-09-17T06:52:33.959Z,16.9
2016-09-17T06:53:44.956Z,16.94
2016-09-17T06:54:56.155Z,16.99
2016-09-17T06:56:07.160Z,17.06
2016-09-17T06:57:18.172Z,17.12
2016-09-17T06:58:29.170Z,17.21
2016-09-17T06:59:40.175Z,17.17
2016-09-17T07:00:51.180Z,17.31
2016-09-17T07:02:02.389Z,17.38
2016-09-17T07:03:13.395Z,17.46
2016-09-17T07:04:24.397Z,17.42
2016-09-17T07:05:35.391Z,17.6
2016-09-17T07:06:46.402Z,17.57
2016-09-17T07:07:57.609Z,17.54
2016-09-17T07:09:08.623Z,17.63
2016-09-17T07:10:19.624Z,17.71
2016-09-17T07:11:30.833Z,17.69
2016-09-17T07:12:41.836Z,17.88
2016-09-17T07:13:52.846Z,17.92
2016-09-17T07:15:03.865Z,17.96
2016-09-17T07:16:14.867Z,18.01
2016-09-17T07:17:25.869Z,18.11
2016-09-17T07:18:36.883Z,18.03
2016-09-17T07:19:47.890Z,18.19
2016-09-17T07:20:58.899Z,18.13
2016-09-17T07:22:09.904Z,18.13
2016-09-17T07:23:20.900Z,18.17
2016-09-17T07:24:31.901Z,18.26
2016-09-17T07:25:42.923Z,18.27
2016-09-17T07:26:53.930Z,18.36
2016-09-17T07:28:04.938Z,18.24
2016-09-17T07:29:15.953Z,18.31
2016-09-17T07:30:26.949Z,18.32
2016-09-17T07:31:37.964Z,18.36
2016-09-17T07:32:48.973Z,18.34
2016-09-17T07:34:00.175Z,18.27
2016-09-17T07:35:11.374Z,18.34
2016-09-17T07:36:22.582Z,18.35
2016-09-17T07:37:33.592Z,18.38
2016-09-17T07:38:44.601Z,18.38
2016-09-17T07:39:55.599Z,18.27
2016-09-17T07:41:06.599Z,18.29
2016-09-17T07:42:17.599Z,18.31
2016-09-17T07:43:28.612Z,18.35
2016-09-17T07:44:39.625Z,18.45
2016-09-17T07:45:50.627Z,18.34
2016-09-17T07:47:01.630Z,18.44
2016-09-17T07:48:12.633Z,18.35
2016-09-17T07:49:23.636Z,18.41
2016-09-17T07:50:34.851Z,18.53
2016-09-17T07:51:45.851Z,18.41
2016-09-17T07:52:56.859Z,18.5
2016-09-17T07:54:07.884Z,18.5
2016-09-17T07:55:18.897Z,18.56
2016-09-17T07:56:29.896Z,18.56
2016-09-17T07:57:40.900Z,18.6
2016-09-17T07:58:52.117Z,18.63
2016-09-17T08:00:03.116Z,18.69
2016-09-17T08:01:14.315Z,18.68
2016-09-17T08:02:25.318Z,18.71
2016-09-17T08:03:36.319Z,18.72
2016-09-17T08:04:47.323Z,18.71
2016-09-17T08:05:58.328Z,18.75
2016-09-17T08:07:09.331Z,18.84
2016-09-17T08:08:20.541Z,18.82
2016-09-17T08:09:31.750Z,18.86
2016-09-17T08:10:42.748Z,18.76
2016-09-17T08:11:53.961Z,18.78
2016-09-17T08:13:04.971Z,18.82
2016-09-17T08:14:15.981Z,18.76
2016-09-17T08:15:27.007Z,18.71
2016-09-17T08:16:38.222Z,18.69
2016-09-17T08:17:49.222Z,18.6
2016-09-17T08:19:00.235Z,18.66
2016-09-17T08:20:11.226Z,18.54
2016-09-17T08:21:22.255Z,18.5
2016-09-17T08:22:33.270Z,18.54
2016-09-17T08:23:44.275Z,18.5
2016-09-17T08:24:55.475Z,18.47
2016-09-17T08:26:06.480Z,18.53
2016-09-17T08:27:17.502Z,18.45
2016-09-17T08:28:28.499Z,18.5
2016-09-17T08:29:39.499Z,18.51
2016-09-17T08:30:50.499Z,18.54
2016-09-17T08:32:01.513Z,18.54
2016-09-17T08:33:12.511Z,18.6
2016-09-17T08:34:23.509Z,18.66
2016-09-17T08:35:34.513Z,18.72
2016-09-17T08:36:45.728Z,18.78
2016-09-17T08:37:56.745Z,18.81
2016-09-17T08:39:07.950Z,18.82
2016-09-17T08:40:18.953Z,18.79
2016-09-17T08:41:29.951Z,18.79
2016-09-17T08:42:40.955Z,18.93
2016-09-17T08:43:52.161Z,18.84
2016-09-17T08:45:03.199Z,18.93
2016-09-17T08:46:14.212Z,18.96
2016-09-17T08:47:25.222Z,19.05
2016-09-17T08:48:36.225Z,19.06
2016-09-17T08:49:47.238Z,19.09
2016-09-17T08:50:58.441Z,19.15
2016-09-17T08:52:09.449Z,19.07
2016-09-17T08:53:20.456Z,19.19
2016-09-17T08:54:31.460Z,19.23
2016-09-17T08:55:42.467Z,19.25
2016-09-17T08:56:53.468Z,19.25
2016-09-17T08:58:04.471Z,19.27
2016-09-17T08:59:15.471Z,19.24
2016-09-17T09:00:26.684Z,19.15
2016-09-17T09:01:37.706Z,19.24
2016-09-17T09:02:48.711Z,19.27
2016-09-17T09:03:59.718Z,19.24
2016-09-17T09:05:10.730Z,19.23
2016-09-17T09:06:21.734Z,19.25
2016-09-17T09:07:32.737Z,19.2
2016-09-17T09:08:43.937Z,19.27
2016-09-17T09:09:54.935Z,19.27
2016-09-17T09:11:05.943Z,19.32
2016-09-17T09:12:16.944Z,19.3
2016-09-17T09:13:27.949Z,19.24
2016-09-17T09:14:39.161Z,19.24
2016-09-17T09:15:50.380Z,19.3
2016-09-17T09:17:01.577Z,19.24
2016-09-17T09:18:12.577Z,19.27
2016-09-17T09:19:23.590Z,19.23
2016-09-17T09:20:34.598Z,19.27
2016-09-17T09:21:45.601Z,19.2
2016-09-17T09:22:56.616Z,19.28
2016-09-17T09:24:07.827Z,19.25
2016-09-17T09:25:18.844Z,19.27
2016-09-17T09:26:30.058Z,19.2
2016-09-17T09:27:41.057Z,19.28
2016-09-17T09:28:52.071Z,19.19
2016-09-17T09:30:03.069Z,19.13
2016-09-17T09:31:14.073Z,19.16
2016-09-17T09:32:25.088Z,19.07
2016-09-17T09:33:36.286Z,19.07
2016-09-17T09:34:47.282Z,19.13
2016-09-17T09:35:58.293Z,19.09
2016-09-17T09:37:09.296Z,19.07
2016-09-17T09:38:20.296Z,19.15
2016-09-17T09:39:31.295Z,19.17
2016-09-17T09:40:42.311Z,19.3
2016-09-17T09:41:53.520Z,19.27
2016-09-17T09:43:04.522Z,19.28
2016-09-17T09:44:15.541Z,19.28
2016-09-17T09:45:26.542Z,19.37
2016-09-17T09:46:37.551Z,19.37
2016-09-17T09:47:48.771Z,19.4
2016-09-17T09:48:59.986Z,19.37
2016-09-17T09:50:11.188Z,19.38
2016-09-17T09:51:22.192Z,19.27
2016-09-17T09:52:33.194Z,19.31
2016-09-17T09:53:44.197Z,19.24
2016-09-17T09:54:55.204Z,19.28
2016-09-17T09:56:06.205Z,19.27
2016-09-17T09:57:17.207Z,19.25
2016-09-17T09:58:28.417Z,19.25
2016-09-17T09:59:39.425Z,19.2
2016-09-17T10:00:50.640Z,19.27
2016-09-17T10:02:01.648Z,19.31
2016-09-17T10:03:12.661Z,19.27
2016-09-17T10:04:23.663Z,19.27
2016-09-17T10:05:34.663Z,19.35
2016-09-17T10:06:45.674Z,19.31
2016-09-17T10:07:56.687Z,19.4
2016-09-17T10:09:07.692Z,19.37
2016-09-17T10:10:18.702Z,19.37
2016-09-17T10:11:29.714Z,19.47
2016-09-17T10:12:40.723Z,19.46
2016-09-17T10:13:51.727Z,19.49
2016-09-17T10:15:02.745Z,19.55
2016-09-17T10:16:13.961Z,19.56
2016-09-17T10:17:24.965Z,19.6
2016-09-17T10:18:35.968Z,19.63
2016-09-17T10:19:46.976Z,19.67
2016-09-17T10:20:57.980Z,19.67
2016-09-17T10:22:08.986Z,19.65
2016-09-17T10:23:20.193Z,19.68
2016-09-17T10:24:31.203Z,19.71
2016-09-17T10:25:42.212Z,19.7
2016-09-17T10:26:53.228Z,19.79
2016-09-17T10:28:04.227Z,19.68
2016-09-17T10:29:15.229Z,19.61
2016-09-17T10:30:26.251Z,19.68
2016-09-17T10:31:37.258Z,19.7
2016-09-17T10:32:48.257Z,19.67
2016-09-17T10:33:59.273Z,19.79
2016-09-17T10:35:10.285Z,19.79
2016-09-17T10:36:21.289Z,19.74
2016-09-17T10:37:32.497Z,19.8
2016-09-17T10:38:43.508Z,19.8
2016-09-17T10:39:54.517Z,19.8
2016-09-17T10:41:05.523Z,19.9
2016-09-17T10:42:16.540Z,19.89
2016-09-17T10:43:27.747Z,19.95
2016-09-17T10:44:38.760Z,19.93
2016-09-17T10:45:49.772Z,19.98
2016-09-17T10:47:00.777Z,19.98
2016-09-17T10:48:11.781Z,20.04
2016-09-17T10:49:22.787Z,20.08
2016-09-17T10:50:33.795Z,20.16
2016-09-17T10:51:44.797Z,20.18
2016-09-17T10:52:55.998Z,20.12
2016-09-17T10:54:07.017Z,20.26
2016-09-17T10:55:18.227Z,20.23
2016-09-17T10:56:29.237Z,20.26
2016-09-17T10:57:40.249Z,20.25
2016-09-17T10:58:51.250Z,20.25
2016-09-17T11:00:02.282Z,20.29
2016-09-17T11:01:13.297Z,20.35
2016-09-17T11:02:24.305Z,20.4
2016-09-17T11:03:35.308Z,20.41
2016-09-17T11:04:46.309Z,20.41
2016-09-17T11:05:57.312Z,20.56
2016-09-17T11:07:08.323Z,20.51
2016-09-17T11:08:19.333Z,20.48
2016-09-17T11:09:30.339Z,20.57
2016-09-17T11:10:41.351Z,20.57
2016-09-17T11:11:52.347Z,20.68
2016-09-17T11:13:03.347Z,20.75
2016-09-17T11:14:14.357Z,20.85
2016-09-17T11:15:25.371Z,20.94
2016-09-17T11:16:36.374Z,20.9
2016-09-17T11:17:47.583Z,21.08
2016-09-17T11:18:58.589Z,21.03
2016-09-17T11:20:09.607Z,21.09
2016-09-17T11:21:20.612Z,21.04
2016-09-17T11:22:31.615Z,21.08
2016-09-17T11:23:42.623Z,21.12
2016-09-17T11:24:53.640Z,21.06
2016-09-17T11:26:04.640Z,21.01
2016-09-17T11:27:15.654Z,21.08
2016-09-17T11:28:26.863Z,21.08
2016-09-17T11:29:37.871Z,20.91
2016-09-17T11:30:49.082Z,20.96
2016-09-17T11:32:00.094Z,20.93
2016-09-17T11:33:11.101Z,20.94
2016-09-17T11:34:22.106Z,21.03
2016-09-17T11:35:33.315Z,20.93
2016-09-17T11:36:44.326Z,20.97
2016-09-17T11:37:55.340Z,21.01
2016-09-17T11:39:06.340Z,20.98
2016-09-17T11:40:17.349Z,21.11
2016-09-17T11:41:28.585Z,21.08
2016-09-17T11:42:39.590Z,21.08
2016-09-17T11:43:51.003Z,21.16
2016-09-17T11:45:02.021Z,21.15
2016-09-17T11:46:13.034Z,21.31
2016-09-17T11:47:24.052Z,21.27
2016-09-17T11:48:35.060Z,21.31
2016-09-17T11:49:46.072Z,21.34
2016-09-17T11:50:57.076Z,21.38
2016-09-17T11:52:08.081Z,21.38
2016-09-17T11:53:19.290Z,21.45
2016-09-17T11:54:30.308Z,21.49
2016-09-17T11:55:41.519Z,21.51
2016-09-17T11:56:52.531Z,21.58
2016-09-17T11:58:03.554Z,21.7
2016-09-17T11:59:14.755Z,21.76
2016-09-17T12:00:25.774Z,21.7
2016-09-17T12:01:36.777Z,21.62
2016-09-17T12:02:47.792Z,21.66
2016-09-17T12:03:59.005Z,21.66
2016-09-17T12:05:10.026Z,21.61
2016-09-17T12:06:21.033Z,21.61
2016-09-17T12:07:32.036Z,21.59
2016-09-17T12:08:43.044Z,21.59
2016-09-17T12:09:54.063Z,21.62
2016-09-17T12:11:05.075Z,21.62
2016-09-17T12:12:16.076Z,21.61
2016-09-17T12:13:27.302Z,21.59
2016-09-17T12:14:38.521Z,21.71
2016-09-17T12:15:49.738Z,21.62
2016-09-17T12:17:00.759Z,21.64
2016-09-17T12:18:11.765Z,21.56
2016-09-17T12:19:22.776Z,21.52
2016-09-17T12:20:33.783Z,21.48
2016-09-17T12:21:44.990Z,21.41
2016-09-17T12:22:55.994Z,21.37
2016-09-17T12:24:07.006Z,21.34
2016-09-17T12:25:18.011Z,21.3
2016-09-17T12:26:29.026Z,21.25
2016-09-17T12:27:40.043Z,21.27
2016-09-17T12:28:51.059Z,21.23
2016-09-17T12:30:02.066Z,21.15
2016-09-17T12:31:13.078Z,21.19
2016-09-17T12:32:24.093Z,21.15
2016-09-17T12:33:35.307Z,21.19
2016-09-17T12:34:46.308Z,21.16
2016-09-17T12:35:57.315Z,21.08
2016-09-17T12:37:08.328Z,21.18
2016-09-17T12:38:19.336Z,21
2016-09-17T12:39:30.341Z,21.06
2016-09-17T12:40:41.348Z,21.06
2016-09-17T12:41:52.350Z,21.04
2016-09-17T12:43:03.355Z,21.09
2016-09-17T12:44:14.570Z,21.09
2016-09-17T12:45:25.767Z,21.06
2016-09-17T12:46:36.772Z,21.04
2016-09-17T12:47:47.784Z,21.03
2016-09-17T12:48:58.781Z,21.09
2016-09-17T12:50:09.805Z,21.08
2016-09-17T12:51:21.008Z,20.97
2016-09-17T12:52:32.011Z,21.03
2016-09-17T12:53:43.011Z,20.93
2016-09-17T12:54:54.014Z,20.94
2016-09-17T12:56:05.035Z,21
2016-09-17T12:57:16.043Z,20.96
2016-09-17T12:58:27.055Z,20.96
2016-09-17T12:59:38.065Z,20.98
2016-09-17T13:00:49.069Z,20.93
2016-09-17T13:02:00.282Z,20.94
2016-09-17T13:03:11.286Z,20.91
2016-09-17T13:04:22.288Z,20.85
2016-09-17T13:05:33.295Z,20.76
2016-09-17T13:06:44.296Z,20.78
2016-09-17T13:07:55.301Z,20.83
2016-09-17T13:09:06.321Z,20.81
2016-09-17T13:10:17.322Z,20.79
2016-09-17T13:11:28.325Z,20.83
2016-09-17T13:12:39.326Z,20.78
2016-09-17T13:13:50.337Z,20.85
2016-09-17T13:15:01.548Z,20.81
2016-09-17T13:16:12.555Z,20.88
2016-09-17T13:17:23.564Z,20.85
2016-09-17T13:18:34.775Z,20.85
2016-09-17T13:19:45.781Z,20.82
2016-09-17T13:20:57.007Z,20.85
2016-09-17T13:22:08.017Z,20.76
2016-09-17T13:23:19.022Z,20.76
2016-09-17T13:24:30.029Z,20.82
2016-09-17T13:25:41.033Z,20.79
2016-09-17T13:26:52.047Z,20.82
2016-09-17T13:28:03.054Z,20.78
2016-09-17T13:29:14.059Z,20.75
2016-09-17T13:30:25.273Z,20.74
2016-09-17T13:31:36.273Z,20.72
2016-09-17T13:32:47.478Z,20.68
2016-09-17T13:33:58.481Z,20.71
2016-09-17T13:35:09.488Z,20.66
2016-09-17T13:36:20.890Z,20.79
2016-09-17T13:37:32.091Z,20.75
2016-09-17T13:38:43.102Z,20.75
2016-09-17T13:39:54.104Z,20.68
2016-09-17T13:41:05.110Z,20.76
2016-09-17T13:42:16.121Z,20.68
2016-09-17T13:43:27.127Z,20.68
2016-09-17T13:44:38.136Z,20.66
2016-09-17T13:45:49.143Z,20.67
2016-09-17T13:47:00.346Z,20.64
2016-09-17T13:48:11.355Z,20.63
2016-09-17T13:49:22.369Z,20.63
2016-09-17T13:50:33.373Z,20.63
2016-09-17T13:51:44.378Z,20.56
2016-09-17T13:52:55.601Z,20.61
2016-09-17T13:54:06.618Z,20.61
2016-09-17T13:55:17.623Z,20.51
2016-09-17T13:56:28.625Z,20.54
2016-09-17T13:57:39.620Z,20.54
2016-09-17T13:58:50.622Z,20.57
2016-09-17T14:00:01.644Z,20.56
2016-09-17T14:01:12.649Z,20.56
2016-09-17T14:02:23.651Z,20.57
2016-09-17T14:03:34.652Z,20.49
2016-09-17T14:04:45.656Z,20.44
2016-09-17T14:05:56.656Z,20.4
2016-09-17T14:07:07.659Z,20.41
2016-09-17T14:08:18.716Z,20.44
2016-09-17T14:09:29.736Z,20.41
2016-09-17T14:10:40.945Z,20.42
2016-09-17T14:11:52.147Z,20.37
2016-09-17T14:13:03.170Z,20.3
2016-09-17T14:14:14.188Z,20.37
2016-09-17T14:15:25.192Z,20.34
2016-09-17T14:16:36.195Z,20.37
2016-09-17T14:17:47.405Z,20.38
2016-09-17T14:18:58.610Z,20.44
2016-09-17T14:20:09.627Z,20.44
2016-09-17T14:21:20.638Z,20.44
2016-09-17T14:22:31.649Z,20.44
2016-09-17T14:23:42.656Z,20.44
2016-09-17T14:24:53.665Z,20.44
2016-09-17T14:26:04.670Z,20.44
2016-09-17T14:27:15.672Z,20.4
2016-09-17T14:28:26.883Z,20.48
2016-09-17T14:29:38.286Z,20.41
2016-09-17T14:30:49.293Z,20.48
2016-09-17T14:32:00.293Z,20.53
2016-09-17T14:33:11.293Z,20.56
2016-09-17T14:34:22.302Z,20.53
2016-09-17T14:35:33.504Z,20.54
2016-09-17T14:36:44.708Z,20.48
2016-09-17T14:37:55.916Z,20.44
2016-09-17T14:39:06.908Z,20.41
2016-09-17T14:40:17.920Z,20.48
2016-09-17T14:41:28.925Z,20.53
2016-09-17T14:42:40.139Z,20.56
2016-09-17T14:43:51.144Z,20.58
2016-09-17T14:45:02.153Z,20.46
2016-09-17T14:46:13.157Z,20.53
2016-09-17T14:47:24.165Z,20.51
2016-09-17T14:48:35.177Z,20.6
2016-09-17T14:49:46.387Z,20.56
2016-09-17T14:50:57.645Z,20.41
2016-09-17T14:52:08.659Z,20.41
2016-09-17T14:53:19.867Z,20.58
2016-09-17T14:54:30.875Z,20.53
2016-09-17T14:55:42.087Z,20.58
2016-09-17T14:56:53.106Z,20.48
2016-09-17T14:58:04.110Z,20.57
2016-09-17T14:59:15.106Z,20.56
2016-09-17T15:00:26.107Z,20.53
2016-09-17T15:01:37.308Z,20.54
2016-09-17T15:02:48.316Z,20.58
2016-09-17T15:03:59.319Z,20.51
2016-09-17T15:05:10.328Z,20.46
2016-09-17T15:06:21.736Z,20.42
2016-09-17T15:07:32.749Z,20.46
2016-09-17T15:08:43.955Z,20.41
2016-09-17T15:09:54.963Z,20.44
2016-09-17T15:11:06.170Z,20.46
2016-09-17T15:12:17.179Z,20.44
2016-09-17T15:13:28.181Z,20.46
2016-09-17T15:14:39.187Z,20.46
2016-09-17T15:15:50.195Z,20.41
2016-09-17T15:17:01.207Z,20.3
2016-09-17T15:18:12.420Z,20.4